Time;durP1;ratioP1;P1;durP2;ratioP2;P2;SDS_P1;SDS_P2;PMS_P1;PMS_P2;Temp;Humidity;BMP_temperature;BMP_pressure;BME280_temperature;BME280_humidity;BME280_pressure;Samples;Min_cycle;Max_cycle;Signal;HPM_P1;HPM_P2
2021/11/24 00:02:25;;;;;;;;;;;;;;;27.48;69.99;100897.81;5076619;27;70337;-38
2021/11/24 00:04:55;;;;;;;;;;;;;;;27.49;69.78;100912.94;5080155;27;66379;-39
2021/11/24 00:07:25;;;;;;;;;;;;;;;27.55;70.38;100912.19;5078297;27;69514;-37
2021/11/24 00:09:55;;;;;;;;;;;;;;;27.61;70.36;100916.78;5075798;27;66063;-37
2021/11/24 00:12:25;;;;;;;;;;;;;;;27.66;70.79;100916.16;5078947;27;70248;-36
2021/11/24 00:14:55;;;;;;;;;;;;;;;27.70;71.10;100922.00;5077549;27;65559;-37
2021/11/24 00:17:25;;;;;;;;;;;;;;;27.70;71.91;100927.41;5079466;27;69273;-37
2021/11/24 00:19:55;;;;;;;;;;;;;;;27.70;71.08;100927.41;5076224;27;66741;-38
2021/11/24 00:22:25;;;;;;;;;;;;;;;27.69;71.58;100931.09;5068571;27;69977;-38
2021/11/24 00:24:55;;;;;;;;;;;;;;;27.73;71.76;100945.88;5077784;27;66518;-37
2021/11/24 00:27:25;;;;;;;;;;;;;;;27.75;71.95;100957.25;5087797;27;69551;-38
2021/11/24 00:29:55;;;;;;;;;;;;;;;27.75;71.04;100957.25;5079220;27;65360;-37
2021/11/24 00:32:25;;;;;;;;;;;;;;;27.72;70.76;100971.13;5070038;27;69731;-38
2021/11/24 00:34:55;;;;;;;;;;;;;;;27.72;71.06;100980.09;5076648;27;66604;-38
2021/11/24 00:37:26;;;;;;;;;;;;;;;27.72;71.06;100984.63;5078691;27;70100;-38
2021/11/24 00:39:56;;;;;;;;;;;;;;;27.75;70.84;100995.00;5078871;27;66046;-38
2021/11/24 00:42:26;;;;;;;;;;;;;;;27.77;70.24;101004.56;5063912;28;70318;-37
2021/11/24 00:44:57;;;;;;;;;;;;;;;27.83;69.02;101008.38;5072125;27;65083;-36
2021/11/24 00:47:27;;;;;;;;;;;;;;;27.91;68.05;101010.09;5070653;27;69120;-37
2021/11/24 00:49:57;;;;;;;;;;;;;;;27.97;68.09;101018.22;5078711;27;66123;-37
2021/11/24 00:52:29;;;;;;;;;;;;;;;28.02;67.88;101017.63;5091363;27;69035;-37
2021/11/24 00:54:59;;;;;;;;;;;;;;;28.09;68.03;101006.91;5078182;27;65546;-37
2021/11/24 00:57:29;;;;;;;;;;;;;;;28.13;68.06;101008.16;5078341;27;69546;-36
2021/11/24 00:59:59;;;;;;;;;;;;;;;28.18;68.24;101008.38;5078402;27;66818;-37
2021/11/24 01:02:29;;;;;;;;;;;;;;;28.21;68.09;101008.00;5078693;27;70444;-36
2021/11/24 01:04:59;;;;;;;;;;;;;;;28.24;68.13;101018.38;5061858;28;66668;-36
2021/11/24 01:07:29;;;;;;;;;;;;;;;28.29;68.09;101029.41;5076921;27;70557;-36
2021/11/24 01:09:59;;;;;;;;;;;;;;;28.31;68.33;101021.97;5078549;27;65561;-36
2021/11/24 01:12:29;;;;;;;;;;;;;;;28.34;67.90;101024.25;5079370;27;70760;-37
2021/11/24 01:14:59;;;;;;;;;;;;;;;28.37;68.09;101026.53;5064564;27;67131;-37
2021/11/24 01:17:29;;;;;;;;;;;;;;;28.41;68.44;101029.66;5081736;27;70690;-37
2021/11/24 01:20:00;;;;;;;;;;;;;;;28.43;67.95;101016.84;5082266;27;65926;-36
2021/11/24 01:22:30;;;;;;;;;;;;;;;28.46;68.09;101016.44;5080818;27;69688;-36
2021/11/24 01:25:01;;;;;;;;;;;;;;;28.47;68.27;101010.88;5081882;27;67156;-37
2021/11/24 01:27:31;;;;;;;;;;;;;;;28.51;68.28;101022.06;5081863;27;70895;-36
2021/11/24 01:30:02;;;;;;;;;;;;;;;28.54;68.41;101020.84;5080542;27;66971;-37
2021/11/24 01:32:32;;;;;;;;;;;;;;;28.56;68.35;101019.63;5081444;27;69988;-35
2021/11/24 01:35:02;;;;;;;;;;;;;;;28.58;68.38;101020.22;5080417;27;66009;-37
2021/11/24 01:37:33;;;;;;;;;;;;;;;28.61;68.42;101027.09;5081003;27;70410;-37
2021/11/24 01:40:03;;;;;;;;;;;;;;;28.62;68.39;101024.19;5082082;27;66437;-36
2021/11/24 01:42:36;;;;;;;;;;;;;;;28.64;68.13;101027.53;5080733;27;70295;-37
2021/11/24 01:45:06;;;;;;;;;;;;;;;28.66;68.08;101024.63;5079531;27;66633;-37
2021/11/24 01:47:37;;;;;;;;;;;;;;;28.69;68.08;101025.03;5080806;28;71904;-36
2021/11/24 01:50:08;;;;;;;;;;;;;;;28.70;68.13;101020.50;5081245;28;65511;-36
2021/11/24 01:52:38;;;;;;;;;;;;;;;28.72;68.54;101007.59;5080360;27;70699;-36
2021/11/24 01:55:09;;;;;;;;;;;;;;;28.75;68.31;101012.59;5081259;27;66605;-36
2021/11/24 01:57:40;;;;;;;;;;;;;;;28.77;68.47;101012.41;5080009;27;69877;-37
2021/11/24 02:00:10;;;;;;;;;;;;;;;28.79;68.47;101013.88;5080769;27;66400;-38
2021/11/24 02:02:40;;;;;;;;;;;;;;;28.81;68.68;101011.81;5080705;27;69549;-36
2021/11/24 02:05:11;;;;;;;;;;;;;;;28.84;68.72;101011.41;5080930;27;65371;-37
2021/11/24 02:07:41;;;;;;;;;;;;;;;28.86;68.70;101012.03;5080987;27;70224;-38
2021/11/24 02:10:11;;;;;;;;;;;;;;;28.88;68.87;101018.03;5080004;27;66643;-36
2021/11/24 02:12:41;;;;;;;;;;;;;;;28.91;68.92;101016.81;5080259;27;70140;-36
2021/11/24 02:15:11;;;;;;;;;;;;;;;28.93;68.66;101010.16;5078931;27;66725;-36
2021/11/24 02:17:42;;;;;;;;;;;;;;;28.95;68.78;101018.91;5080973;27;70243;-37
2021/11/24 02:20:13;;;;;;;;;;;;;;;28.99;69.30;101013.09;5077267;27;65333;-37
2021/11/24 02:22:43;;;;;;;;;;;;;;;29.00;69.35;101020.97;5081027;27;69910;-36
2021/11/24 02:25:13;;;;;;;;;;;;;;;29.03;69.36;101019.75;5074900;27;66591;-36
2021/11/24 02:27:43;;;;;;;;;;;;;;;29.05;69.11;101006.91;5072986;27;69348;-37
2021/11/24 02:30:12;;;;;;;;;;;;;;;29.08;69.51;101007.31;5078975;27;65342;-38
2021/11/24 02:32:42;;;;;;;;;;;;;;;29.11;68.94;101016.88;5080123;27;70260;-36
2021/11/24 02:35:12;;;;;;;;;;;;;;;29.14;68.90;101019.16;5079376;27;66659;-36
2021/11/24 02:37:49;;;;;;;;;;;;;;;29.15;68.81;101023.56;5080420;27;70299;-36
2021/11/24 02:40:33;;;;;;;;;;;;;;;29.18;69.20;101028.53;5080785;27;66606;-37
2021/11/24 02:43:04;;;;;;;;;;;;;;;29.20;69.18;101021.06;5079788;27;70202;-36
2021/11/24 02:45:34;;;;;;;;;;;;;;;29.23;69.30;101019.84;5079613;27;66551;-37
2021/11/24 02:48:04;;;;;;;;;;;;;;;29.26;68.77;101016.72;5079817;27;70065;-37
2021/11/24 02:50:34;;;;;;;;;;;;;;;29.27;69.07;101019.19;5080006;27;67058;-37
2021/11/24 02:53:05;;;;;;;;;;;;;;;29.29;68.95;101029.81;5074263;27;69701;-37
2021/11/24 02:55:35;;;;;;;;;;;;;;;29.31;68.65;101036.66;5077815;27;66302;-36
2021/11/24 02:58:05;;;;;;;;;;;;;;;29.33;68.85;101026.47;5079438;27;70203;-36
2021/11/24 03:00:35;;;;;;;;;;;;;;;29.35;68.70;101034.38;5078093;27;65813;-36
2021/11/24 03:03:05;;;;;;;;;;;;;;;29.37;68.80;101027.72;5080154;27;70342;-36
2021/11/24 03:05:35;;;;;;;;;;;;;;;29.37;68.66;101022.34;5084756;27;66940;-37
2021/11/24 03:08:05;;;;;;;;;;;;;;;29.42;68.61;101032.53;5062421;28;70474;-37
2021/11/24 03:10:35;;;;;;;;;;;;;;;29.40;68.11;101032.72;5075597;27;65802;-37
2021/11/24 03:13:06;;;;;;;;;;;;;;;29.46;68.29;101035.63;5079648;27;69455;-35
2021/11/24 03:15:36;;;;;;;;;;;;;;;29.46;68.63;101030.25;5080098;27;65570;-36
2021/11/24 03:18:09;;;;;;;;;;;;;;;29.50;68.32;101036.88;5061892;28;70770;-37
2021/11/24 03:20:39;;;;;;;;;;;;;;;29.49;67.97;101024.41;5079940;27;65869;-37
2021/11/24 03:23:10;;;;;;;;;;;;;;;29.55;67.98;101034.38;5079352;27;69527;-37
2021/11/24 03:25:40;;;;;;;;;;;;;;;29.58;68.01;101033.97;5077211;27;66957;-35
2021/11/24 03:28:10;;;;;;;;;;;;;;;29.59;67.80;101031.06;5078815;27;69439;-36
2021/11/24 03:30:40;;;;;;;;;;;;;;;29.59;68.08;101020.25;5068968;27;66406;-37
2021/11/24 03:33:10;;;;;;;;;;;;;;;29.64;68.18;101019.66;5077924;27;70208;-37
2021/11/24 03:35:40;;;;;;;;;;;;;;;29.66;67.63;101014.88;5079791;27;66042;-37
2021/11/24 03:38:10;;;;;;;;;;;;;;;29.69;67.64;101019.84;5079151;27;70174;-37
2021/11/24 03:40:40;;;;;;;;;;;;;;;29.71;68.11;101019.66;5078157;27;65587;-37
2021/11/24 03:43:10;;;;;;;;;;;;;;;29.73;67.60;101013.00;5078830;27;69745;-37
2021/11/24 03:45:41;;;;;;;;;;;;;;;29.75;67.78;101005.50;5079590;27;66828;-37
2021/11/24 03:48:11;;;;;;;;;;;;;;;29.78;67.35;101010.50;5077874;27;70695;-37
2021/11/24 03:50:41;;;;;;;;;;;;;;;29.79;67.56;101009.47;5078969;27;66884;-37
2021/11/24 03:53:11;;;;;;;;;;;;;;;29.82;67.09;100995.50;5079142;27;69903;-37
2021/11/24 03:55:41;;;;;;;;;;;;;;;29.82;67.10;100995.50;5077691;27;66839;-36
2021/11/24 03:58:11;;;;;;;;;;;;;;;29.87;66.91;100983.25;5073542;27;70161;-36
2021/11/24 04:00:41;;;;;;;;;;;;;;;29.86;66.78;100971.56;5078864;27;66853;-37
2021/11/24 04:03:11;;;;;;;;;;;;;;;29.93;67.00;100971.59;5079441;27;70387;-37
2021/11/24 04:05:42;;;;;;;;;;;;;;;29.94;66.79;100963.25;5079451;27;66942;-37
2021/11/24 04:08:12;;;;;;;;;;;;;;;29.97;66.42;100956.56;5077000;27;69306;-37
2021/11/24 04:10:41;;;;;;;;;;;;;;;30.01;66.83;100957.84;5079037;27;65868;-37
2021/11/24 04:13:11;;;;;;;;;;;;;;;30.03;66.38;100955.72;5078522;27;70064;-37
2021/11/24 04:15:41;;;;;;;;;;;;;;;30.05;66.54;100954.47;5078504;27;65342;-37
2021/11/24 04:18:11;;;;;;;;;;;;;;;30.08;66.09;100947.81;5077020;27;70690;-37
2021/11/24 04:20:42;;;;;;;;;;;;;;;30.10;66.44;100945.72;5078836;27;66899;-37
2021/11/24 04:23:12;;;;;;;;;;;;;;;30.13;65.81;100939.06;5078379;27;69339;-36
2021/11/24 04:25:42;;;;;;;;;;;;;;;30.15;65.65;100943.22;5077466;27;66196;-37
2021/11/24 04:28:12;;;;;;;;;;;;;;;30.17;65.88;100930.31;5060705;28;70108;-36
2021/11/24 04:30:42;;;;;;;;;;;;;;;30.21;65.92;100925.28;5076741;27;65707;-36
2021/11/24 04:33:11;;;;;;;;;;;;;;;30.22;65.31;100927.78;5076822;28;69226;-36
2021/11/24 04:35:42;;;;;;;;;;;;;;;30.23;65.78;100915.94;5076351;27;66134;-36
2021/11/24 04:38:12;;;;;;;;;;;;;;;30.27;65.06;100909.03;5056465;28;69812;-36
2021/11/24 04:40:42;;;;;;;;;;;;;;;30.27;65.07;100906.34;5077099;27;66634;-36
2021/11/24 04:43:14;;;;;;;;;;;;;;;30.33;65.44;100906.53;5079066;27;70343;-36
2021/11/24 04:45:44;;;;;;;;;;;;;;;30.35;65.42;100902.56;5076803;27;66559;-37
2021/11/24 04:48:15;;;;;;;;;;;;;;;30.38;65.36;100901.31;5078581;27;69430;-37
2021/11/24 04:50:45;;;;;;;;;;;;;;;30.39;65.22;100892.13;5077427;27;66459;-37
2021/11/24 04:53:15;;;;;;;;;;;;;;;30.42;65.14;100897.97;5077456;27;68546;-36
2021/11/24 04:55:45;;;;;;;;;;;;;;;30.40;64.81;100885.69;5075842;27;66044;-37
2021/11/24 04:58:15;;;;;;;;;;;;;;;30.47;64.42;100886.47;5077851;27;70856;-37
2021/11/24 05:00:45;;;;;;;;;;;;;;;30.48;64.73;100893.56;5070239;27;65469;-37
2021/11/24 05:03:16;;;;;;;;;;;;;;;30.50;64.42;100880.59;5074904;27;69346;-37
2021/11/24 05:05:46;;;;;;;;;;;;;;;30.51;64.17;100866.03;5077605;27;65463;-37
2021/11/24 05:08:16;;;;;;;;;;;;;;;30.54;64.59;100864.78;5076237;27;70018;-36
2021/11/24 05:10:48;;;;;;;;;;;;;;;30.57;64.46;100859.75;5078664;27;66051;-37
2021/11/24 05:13:19;;;;;;;;;;;;;;;30.58;64.25;100850.56;5064175;27;70742;-37
2021/11/24 05:15:52;;;;;;;;;;;;;;;30.61;64.05;100849.31;5075779;27;65009;-37
2021/11/24 05:18:29;;;;;;;;;;;;;;;30.63;64.24;100841.81;5074224;27;69974;-37
2021/11/24 05:21:04;;;;;;;;;;;;;;;30.65;64.63;100837.81;5077842;27;66352;-35
2021/11/24 05:23:37;;;;;;;;;;;;;;;30.67;64.59;100833.03;5078413;27;70281;-36
2021/11/24 05:26:07;;;;;;;;;;;;;;;30.68;64.59;100829.25;5073578;27;65689;-36
2021/11/24 05:28:37;;;;;;;;;;;;;;;30.71;64.68;100828.00;5071444;27;70333;-37
2021/11/24 05:31:07;;;;;;;;;;;;;;;30.72;64.67;100814.22;5077271;27;65793;-36
2021/11/24 05:33:37;;;;;;;;;;;;;;;30.75;64.42;100817.53;5077735;27;70291;-37
2021/11/24 05:36:07;;;;;;;;;;;;;;;30.76;64.54;100808.34;5074734;27;65568;-36
2021/11/24 05:38:38;;;;;;;;;;;;;;;30.78;64.09;100803.56;5075489;27;70225;-37
2021/11/24 05:41:09;;;;;;;;;;;;;;;30.79;64.65;100794.41;5077870;27;66729;-38
2021/11/24 05:43:39;;;;;;;;;;;;;;;30.82;64.48;100781.28;5072106;27;70161;-37
2021/11/24 05:48:46;;;;;;;;;;;;;;;30.89;64.25;100773.06;5077425;27;70060;-36
2021/11/24 05:51:16;;;;;;;;;;;;;;;30.92;64.30;100759.06;5075487;27;65861;-36
2021/11/24 05:53:45;;;;;;;;;;;;;;;30.96;64.48;100749.47;5077719;27;70192;-36
2021/11/24 05:56:15;;;;;;;;;;;;;;;30.99;64.40;100759.84;5059744;28;65765;-36
2021/11/24 05:58:46;;;;;;;;;;;;;;;31.02;64.13;100756.69;5077010;27;69713;-36
2021/11/24 06:01:15;;;;;;;;;;;;;;;31.04;64.56;100756.47;5078981;27;66473;-36
2021/11/24 06:03:46;;;;;;;;;;;;;;;31.06;63.99;100757.88;5080592;27;70059;-36
2021/11/24 06:06:15;;;;;;;;;;;;;;;31.09;64.18;100760.16;5079676;27;66365;-36
2021/11/24 06:08:46;;;;;;;;;;;;;;;31.10;64.10;100753.69;5080912;27;69149;-36
2021/11/24 06:11:15;;;;;;;;;;;;;;;31.12;63.36;100754.31;5080848;27;67121;-36
2021/11/24 06:13:46;;;;;;;;;;;;;;;31.13;63.21;100755.94;5090211;27;68793;-36
2021/11/24 06:16:16;;;;;;;;;;;;;;;31.15;63.38;100748.44;5080865;27;65722;-36
2021/11/24 06:18:48;;;;;;;;;;;;;;;31.17;62.95;100746.34;5079107;27;70795;-36
2021/11/24 06:21:21;;;;;;;;;;;;;;;31.20;62.86;100736.06;5079674;27;66889;-36
2021/11/24 06:23:52;;;;;;;;;;;;;;;31.21;62.99;100718.78;5076419;27;70243;-36
2021/11/24 06:26:22;;;;;;;;;;;;;;;31.23;62.86;100720.22;5078786;27;66488;-37
2021/11/24 06:28:53;;;;;;;;;;;;;;;31.25;62.33;100711.84;5079928;27;70197;-37
2021/11/24 06:31:25;;;;;;;;;;;;;;;31.28;62.52;100708.66;5080136;27;65782;-37
2021/11/24 06:33:58;;;;;;;;;;;;;;;31.30;62.26;100703.84;5074975;28;69708;-36
2021/11/24 06:36:47;;;;;;;;;;;;;;;31.31;62.59;100698.19;5079700;27;67130;-37
2021/11/24 06:39:17;;;;;;;;;;;;;;;31.34;62.27;100696.91;5077222;27;69869;-37
2021/11/24 06:41:47;;;;;;;;;;;;;;;31.37;62.39;100699.19;5080004;28;66386;-36
2021/11/24 06:44:17;;;;;;;;;;;;;;;31.38;62.76;100698.16;5075112;28;72186;-35
2021/11/24 06:46:47;;;;;;;;;;;;;;;31.41;62.80;100689.56;5077834;28;66512;-35
2021/11/24 06:49:17;;;;;;;;;;;;;;;31.43;62.76;100686.66;5078530;27;69116;-35
2021/11/24 06:51:47;;;;;;;;;;;;;;;31.45;63.24;100681.78;5079994;27;67063;-36
2021/11/24 06:54:17;;;;;;;;;;;;;;;31.45;63.18;100671.78;5078337;27;70491;-36
2021/11/24 06:56:49;;;;;;;;;;;;;;;31.49;62.97;100673.00;5080059;27;66568;-35
2021/11/24 06:59:23;;;;;;;;;;;;;;;31.52;62.57;100677.94;5077819;27;70191;-36
2021/11/24 07:01:57;;;;;;;;;;;;;;;31.54;62.63;100675.03;5079172;27;67054;-36
2021/11/24 07:04:45;;;;;;;;;;;;;;;31.56;62.90;100676.41;5078332;27;70111;-36
2021/11/24 07:07:16;;;;;;;;;;;;;;;31.58;62.96;100679.72;5078967;27;66711;-36
2021/11/24 07:09:56;;;;;;;;;;;;;;;31.59;62.76;100667.84;5075720;27;70105;-36
2021/11/24 07:12:33;;;;;;;;;;;;;;;31.61;62.88;100679.28;5078555;27;65669;-36
2021/11/24 07:15:09;;;;;;;;;;;;;;;31.63;62.82;100672.81;5080089;27;69401;-36
2021/11/24 07:17:42;;;;;;;;;;;;;;;31.64;62.56;100675.28;5077313;27;65768;-36
2021/11/24 07:20:16;;;;;;;;;;;;;;;31.66;62.76;100672.34;5077062;27;68488;-36
2021/11/24 07:22:52;;;;;;;;;;;;;;;31.66;62.86;100672.34;5074352;27;66578;-36
2021/11/24 07:25:27;;;;;;;;;;;;;;;31.68;62.50;100675.63;5071692;27;69824;-36
2021/11/24 07:27:59;;;;;;;;;;;;;;;31.66;62.08;100673.16;5077680;27;66771;-37
2021/11/24 07:30:30;;;;;;;;;;;;;;;31.70;62.02;100677.06;5077758;27;69087;-37
2021/11/24 07:33:20;;;;;;;;;;;;;;;31.72;62.10;100676.84;5083040;27;60002;-37
2021/11/24 07:35:56;;;;;;;;;;;;;;;31.69;62.21;100658.31;5077890;28;68803;-37
2021/11/24 07:38:32;;;;;;;;;;;;;;;31.73;61.89;100664.91;5078829;28;65891;-37
2021/11/24 07:41:07;;;;;;;;;;;;;;;31.75;62.17;100670.94;5078022;27;69696;-37
2021/11/24 07:43:45;;;;;;;;;;;;;;;31.75;61.96;100671.78;5078210;27;66509;-36
2021/11/24 07:46:17;;;;;;;;;;;;;;;31.77;62.10;100668.84;5077801;27;70323;-37
2021/11/24 07:48:50;;;;;;;;;;;;;;;31.77;62.42;100668.84;5060167;27;66380;-36
2021/11/24 07:51:34;;;;;;;;;;;;;;;31.79;61.82;100658.59;5078201;27;69555;-37
2021/11/24 07:54:12;;;;;;;;;;;;;;;31.79;62.04;100651.28;5076447;27;66721;-36
2021/11/24 07:56:52;;;;;;;;;;;;;;;31.80;61.84;100635.84;5078491;27;70102;-37
2021/11/24 07:59:27;;;;;;;;;;;;;;;31.82;61.74;100644.56;5078343;27;66757;-36
2021/11/24 08:02:00;;;;;;;;;;;;;;;31.82;61.82;100641.84;5078623;27;70818;-36
2021/11/24 08:04:44;;;;;;;;;;;;;;;31.85;62.00;100646.81;5076617;27;66221;-36
2021/11/24 08:07:28;;;;;;;;;;;;;;;31.86;61.28;100647.63;5078160;27;69267;-36
2021/11/24 08:10:14;;;;;;;;;;;;;;;31.87;61.55;100643.84;5075812;27;66019;-36
2021/11/24 08:12:59;;;;;;;;;;;;;;;31.87;61.46;100636.53;5077251;27;69194;-37
2021/11/24 08:15:56;;;;;;;;;;;;;;;31.89;61.50;100631.72;5073234;27;67133;-36
2021/11/24 08:18:28;;;;;;;;;;;;;;;31.91;61.05;100643.19;5057713;28;69357;-37
2021/11/24 08:21:02;;;;;;;;;;;;;;;31.89;61.42;100633.59;5075443;27;66684;-36
2021/11/24 08:23:35;;;;;;;;;;;;;;;31.95;61.34;100638.94;5077309;27;70696;-36
2021/11/24 08:26:14;;;;;;;;;;;;;;;31.96;61.50;100637.91;5075826;27;66686;-37
2021/11/24 08:29:00;;;;;;;;;;;;;;;31.98;61.47;100641.22;5076202;28;70790;-37
2021/11/24 08:31:42;;;;;;;;;;;;;;;32.02;61.62;100638.84;5078252;27;66122;-36
2021/11/24 08:34:17;;;;;;;;;;;;;;;32.04;61.14;100648.41;5076274;28;69992;-37
2021/11/24 08:36:49;;;;;;;;;;;;;;;32.06;61.08;100645.44;5077276;27;66288;-37
2021/11/24 08:39:29;;;;;;;;;;;;;;;32.08;60.81;100647.94;5076759;27;69752;-36
2021/11/24 08:42:05;;;;;;;;;;;;;;;32.09;60.61;100639.56;5075005;27;66739;-38
2021/11/24 08:44:41;;;;;;;;;;;;;;;32.17;59.88;100657.38;5060794;28;69377;-37
2021/11/24 08:47:12;;;;;;;;;;;;;;;32.22;59.64;100657.50;5043964;27;67104;-37
2021/11/24 08:49:44;;;;;;;;;;;;;;;32.24;59.08;100663.53;5056247;28;71211;-38
2021/11/24 08:52:21;;;;;;;;;;;;;;;32.24;59.17;100653.50;5077255;27;65559;-38
2021/11/24 08:54:51;;;;;;;;;;;;;;;32.28;59.17;100654.66;5079054;27;70310;-38
2021/11/24 08:57:24;;;;;;;;;;;;;;;32.27;59.23;100666.59;5078821;27;66496;-38
2021/11/24 08:59:53;;;;;;;;;;;;;;;32.32;58.76;100660.47;5077833;27;70206;-38
2021/11/24 09:02:36;;;;;;;;;;;;;;;32.34;58.66;100674.63;5076164;27;66901;-38
2021/11/24 09:05:08;;;;;;;;;;;;;;;32.38;58.48;100675.81;5074126;27;70168;-38
2021/11/24 09:07:41;;;;;;;;;;;;;;;32.40;58.52;100672.84;5078629;27;66146;-37
2021/11/24 09:10:12;;;;;;;;;;;;;;;32.40;58.82;100668.28;5056885;28;69728;-37
2021/11/24 09:12:42;;;;;;;;;;;;;;;32.39;60.00;100682.06;5079054;27;65488;-39
2021/11/24 09:15:14;;;;;;;;;;;;;;;32.39;61.01;100676.63;5078783;27;69654;-38
2021/11/24 09:18:04;;;;;;;;;;;;;;;32.41;61.30;100680.78;5076650;27;65093;-39
2021/11/24 09:20:34;;;;;;;;;;;;;;;32.43;61.61;100680.50;5076087;27;69748;-39
2021/11/24 09:23:04;;;;;;;;;;;;;;;32.43;61.58;100688.66;5075120;27;66728;-38
2021/11/24 09:25:46;;;;;;;;;;;;;;;32.33;62.17;100694.69;5077086;27;69347;-38
2021/11/24 09:28:20;;;;;;;;;;;;;;;32.13;62.71;100694.19;5075360;27;66412;-38
2021/11/24 09:30:50;;;;;;;;;;;;;;;32.02;62.49;100702.06;5077349;27;69413;-38
2021/11/24 09:33:20;;;;;;;;;;;;;;;31.96;62.36;100705.72;5078162;27;66840;-37
2021/11/24 09:35:50;;;;;;;;;;;;;;;31.90;62.55;100701.19;5076251;27;70447;-36
2021/11/24 09:38:20;;;;;;;;;;;;;;;31.88;61.86;100713.34;5077728;27;66595;-37
2021/11/24 09:40:51;;;;;;;;;;;;;;;31.85;62.13;100711.09;5077020;27;69883;-38
2021/11/24 09:43:21;;;;;;;;;;;;;;;31.87;62.84;100725.22;5074616;27;66284;-38
2021/11/24 09:45:52;;;;;;;;;;;;;;;31.79;64.24;100723.69;5081010;27;70042;-38
2021/11/24 09:48:22;;;;;;;;;;;;;;;31.79;65.49;100731.81;5081515;27;66677;-37
2021/11/24 09:50:54;;;;;;;;;;;;;;;31.72;66.00;100726.47;5079296;27;68888;-38
2021/11/24 09:53:26;;;;;;;;;;;;;;;31.64;66.40;100717.84;5076161;27;66295;-37
2021/11/24 09:55:56;;;;;;;;;;;;;;;31.61;67.07;100733.50;5081147;27;70089;-38
2021/11/24 09:58:26;;;;;;;;;;;;;;;31.57;67.56;100726.91;5079398;28;66606;-37
2021/11/24 10:00:58;;;;;;;;;;;;;;;31.56;67.45;100727.09;5079705;27;70139;-38
2021/11/24 10:03:28;;;;;;;;;;;;;;;31.48;67.68;100741.81;5077245;27;66890;-37
2021/11/24 10:05:58;;;;;;;;;;;;;;;31.49;67.74;100724.50;5078405;27;69525;-38
2021/11/24 10:08:33;;;;;;;;;;;;;;;31.44;68.21;100724.34;5079878;27;66557;-37
2021/11/24 10:11:03;;;;;;;;;;;;;;;31.42;68.39;100712.91;5078536;27;69957;-38
2021/11/24 10:13:34;;;;;;;;;;;;;;;31.42;68.58;100714.78;5079685;27;66001;-38
2021/11/24 10:16:04;;;;;;;;;;;;;;;31.38;68.85;100719.84;5080107;27;70542;-38
2021/11/24 10:18:57;;;;;;;;;;;;;;;31.37;68.96;100723.59;5077454;27;66744;-38
2021/11/24 10:21:28;;;;;;;;;;;;;;;31.38;69.71;100727.97;5080671;27;69414;-38
2021/11/24 10:23:59;;;;;;;;;;;;;;;31.37;70.09;100729.00;5080089;27;66805;-37
2021/11/24 10:26:34;;;;;;;;;;;;;;;31.39;70.70;100732.31;5080530;27;69916;-37
2021/11/24 10:29:16;;;;;;;;;;;;;;;31.41;71.02;100738.34;5081218;27;66922;-38
2021/11/24 10:31:47;;;;;;;;;;;;;;;31.40;71.06;100742.13;5079522;27;70083;-38
2021/11/24 10:34:20;;;;;;;;;;;;;;;31.37;70.65;100745.28;5078784;27;67796;-37
2021/11/24 10:37:06;;;;;;;;;;;;;;;31.34;71.14;100745.69;5077222;27;70546;-37
2021/11/24 10:39:42;;;;;;;;;;;;;;;31.32;70.64;100750.53;5071092;27;65589;-37
2021/11/24 10:42:13;;;;;;;;;;;;;;;31.30;70.93;100749.94;5078654;27;69942;-37
2021/11/24 10:44:47;;;;;;;;;;;;;;;31.28;71.00;100746.59;5079832;27;66300;-38
2021/11/24 10:47:19;;;;;;;;;;;;;;;31.24;70.49;100746.25;5077515;27;70407;-38
2021/11/24 10:49:51;;;;;;;;;;;;;;;31.24;70.47;100751.66;5078714;27;66046;-38
2021/11/24 10:52:35;;;;;;;;;;;;;;;31.24;70.61;100761.69;5079376;27;70485;-37
2021/11/24 10:55:11;;;;;;;;;;;;;;;31.22;70.32;100766.50;5062294;28;66793;-37
2021/11/24 10:57:43;;;;;;;;;;;;;;;31.20;70.27;100771.28;5078572;27;69061;-38
2021/11/24 11:00:13;;;;;;;;;;;;;;;31.15;70.32;100758.44;5070328;27;67722;-36
2021/11/24 11:02:44;;;;;;;;;;;;;;;31.14;70.60;100773.84;5078987;27;69111;-37
2021/11/24 11:05:24;;;;;;;;;;;;;;;31.15;70.29;100775.53;5071784;27;67070;-37
2021/11/24 11:07:55;;;;;;;;;;;;;;;31.13;71.00;100771.38;5078117;27;70160;-37
2021/11/24 11:10:27;;;;;;;;;;;;;;;31.14;71.54;100773.84;5072684;27;66101;-38
2021/11/24 11:13:05;;;;;;;;;;;;;;;31.15;71.30;100772.00;5076755;27;69433;-37
2021/11/24 11:15:36;;;;;;;;;;;;;;;31.12;71.69;100765.13;5077781;27;66206;-37
2021/11/24 11:18:08;;;;;;;;;;;;;;;31.15;71.36;100770.09;5078454;27;70311;-38
2021/11/24 11:20:38;;;;;;;;;;;;;;;31.16;71.02;100770.94;5076397;27;65728;-37
2021/11/24 11:23:16;;;;;;;;;;;;;;;31.15;70.92;100769.28;5077647;27;69224;-36
2021/11/24 11:25:52;;;;;;;;;;;;;;;31.20;70.72;100776.72;5076727;27;65672;-36
2021/11/24 11:28:23;;;;;;;;;;;;;;;31.16;71.14;100776.34;5076596;27;70561;-36
2021/11/24 11:30:54;;;;;;;;;;;;;;;31.13;70.79;100782.22;5078678;27;66082;-37
2021/11/24 11:33:31;;;;;;;;;;;;;;;31.14;70.75;100790.09;5076207;27;70211;-37
2021/11/24 11:36:06;;;;;;;;;;;;;;;31.12;71.15;100786.81;5078652;27;65167;-36
2021/11/24 11:38:37;;;;;;;;;;;;;;;31.12;70.46;100794.94;5074226;27;69554;-37
2021/11/24 11:41:09;;;;;;;;;;;;;;;31.13;71.01;100804.72;5077292;27;65248;-36
2021/11/24 11:43:59;;;;;;;;;;;;;;;31.11;71.10;100801.41;5078066;27;69766;-37
2021/11/24 11:46:50;;;;;;;;;;;;;;;31.10;71.14;100810.59;5078923;27;65462;-37
2021/11/24 11:49:22;;;;;;;;;;;;;;;31.08;71.40;100823.53;5079060;27;70049;-37
2021/11/24 11:51:54;;;;;;;;;;;;;;;31.06;71.25;100833.75;5079265;27;67032;-37
2021/11/24 11:54:25;;;;;;;;;;;;;;;31.05;71.37;100833.97;5080335;27;70373;-37
2021/11/24 11:56:56;;;;;;;;;;;;;;;31.05;71.62;100842.94;5077715;27;66646;-36
2021/11/24 11:59:35;;;;;;;;;;;;;;;31.02;71.28;100845.25;5077783;27;71002;-36
2021/11/24 12:02:11;;;;;;;;;;;;;;;31.01;71.30;100852.56;5079412;27;66878;-36
2021/11/24 12:04:46;;;;;;;;;;;;;;;30.99;71.18;100857.38;5076464;27;69877;-36
2021/11/24 12:07:23;;;;;;;;;;;;;;;30.97;70.84;100847.81;5068311;28;65685;-37
2021/11/24 12:10:07;;;;;;;;;;;;;;;30.96;71.16;100846.97;5074787;27;69883;-37
2021/11/24 12:12:38;;;;;;;;;;;;;;;30.96;71.16;100852.41;5076750;28;65939;-37
2021/11/24 12:15:17;;;;;;;;;;;;;;;30.94;71.17;100859.91;5072720;28;69474;-36
2021/11/24 12:18:11;;;;;;;;;;;;;;;30.94;72.46;100865.31;5075036;28;65744;-35
2021/11/24 12:20:44;;;;;;;;;;;;;;;30.92;73.21;100856.59;5056564;28;69491;-36
2021/11/24 12:23:32;;;;;;;;;;;;;;;30.96;72.57;100868.66;5073386;28;65728;-36
2021/11/24 12:26:05;;;;;;;;;;;;;;;30.96;72.52;100879.50;5073151;28;69638;-36
2021/11/24 12:28:37;;;;;;;;;;;;;;;30.94;72.49;100887.00;5074795;28;65739;-35
2021/11/24 12:31:19;;;;;;;;;;;;;;;30.95;72.79;100894.06;5073936;28;69480;-36
2021/11/24 12:33:54;;;;;;;;;;;;;;;30.97;72.89;100910.09;5074590;27;66742;-36
2021/11/24 12:36:36;;;;;;;;;;;;;;;30.97;73.37;100913.66;5073944;27;70086;-36
2021/11/24 12:39:11;;;;;;;;;;;;;;;31.00;72.79;100913.19;5074654;27;66196;-36
2021/11/24 12:42:02;;;;;;;;;;;;;;;30.95;72.25;100921.16;5055068;27;69628;-36
2021/11/24 12:44:36;;;;;;;;;;;;;;;30.73;68.61;100926.91;5075014;27;66700;-35
2021/11/24 12:47:10;;;;;;;;;;;;;;;30.50;65.89;100929.31;5074882;27;69744;-36
2021/11/24 12:49:47;;;;;;;;;;;;;;;30.33;63.31;100934.41;5054204;28;65786;-36
2021/11/24 12:52:24;;;;;;;;;;;;;;;30.17;61.27;100930.31;5076475;27;70587;-36
2021/11/24 12:55:16;;;;;;;;;;;;;;;30.03;59.28;100942.19;5075152;27;66326;-36
2021/11/24 12:58:28;;;;;;;;;;;;;;;29.90;59.31;100939.56;5072063;27;70498;-36
2021/11/24 13:01:27;;;;;;;;;;;;;;;29.80;59.38;100948.09;5077114;27;65868;-37
2021/11/24 13:04:03;;;;;;;;;;;;;;;29.73;60.35;100950.81;5078235;27;70258;-35
2021/11/24 13:06:47;;;;;;;;;;;;;;;29.64;58.77;100956.66;5076466;27;66342;-36
2021/11/24 13:09:39;;;;;;;;;;;;;;;29.54;58.15;100963.28;5073712;27;69457;-36